createdAt,value
2018-04-23T00:00:58.725Z,10.97
2018-04-23T00:03:26.159Z,11.10
2018-04-23T00:05:52.825Z,11.10
2018-04-23T00:08:20.223Z,10.70
2018-04-23T00:10:46.893Z,11.03
2018-04-23T00:13:13.576Z,10.73
2018-04-23T00:15:40.961Z,10.30
2018-04-23T00:18:07.636Z,10.43
2018-04-23T00:20:34.285Z,10.63
2018-04-23T00:23:00.968Z,11.17
2018-04-23T00:25:28.386Z,11.10
2018-04-23T00:27:55.043Z,11.47
2018-04-23T00:30:21.701Z,11.30
2018-04-23T00:32:49.141Z,11.13
2018-04-23T00:35:15.788Z,11.50
2018-04-23T00:37:42.427Z,12.03
2018-04-23T00:40:09.111Z,11.27
2018-04-23T00:42:35.753Z,11.30
2018-04-23T00:45:02.419Z,10.50
2018-04-23T00:47:29.132Z,11.93
2018-04-23T00:49:56.535Z,12.50
2018-04-23T00:52:23.172Z,11.23
2018-04-23T00:54:49.870Z,11.33
2018-04-23T00:57:17.254Z,12.23
2018-04-23T00:59:43.910Z,11.57
2018-04-23T01:02:10.581Z,11.83
2018-04-23T01:04:37.204Z,12.00
2018-04-23T01:07:03.867Z,11.73
2018-04-23T01:09:30.567Z,11.10
2018-04-23T01:11:57.249Z,11.90
2018-04-23T01:14:23.948Z,12.50
2018-04-23T01:16:50.641Z,11.93
2018-04-23T01:19:17.308Z,11.37
2018-04-23T01:21:44.700Z,11.77
2018-04-23T01:24:11.369Z,12.17
2018-04-23T01:26:38.030Z,11.90
2018-04-23T01:29:04.690Z,12.80
2018-04-23T01:31:31.378Z,12.17
2018-04-23T01:33:58.029Z,11.80
2018-04-23T01:36:24.699Z,11.97
2018-04-23T01:38:51.655Z,12.60
2018-04-23T01:41:18.309Z,11.50
2018-04-23T01:43:45.729Z,11.10
2018-04-23T01:46:12.408Z,11.90
2018-04-23T01:48:39.078Z,12.70
2018-04-23T01:51:05.755Z,11.90
2018-04-23T01:53:32.470Z,12.17
2018-04-23T01:55:59.118Z,12.23
2018-04-23T01:58:25.753Z,12.13
2018-04-23T02:00:52.433Z,12.57
2018-04-23T02:03:19.115Z,12.87
2018-04-23T02:05:46.505Z,12.67
2018-04-23T02:08:13.146Z,12.67
2018-04-23T02:10:39.804Z,12.20
2018-04-23T02:13:06.441Z,13.10
2018-04-23T02:15:33.140Z,14.60
2018-04-23T02:17:59.780Z,13.47
2018-04-23T02:20:26.425Z,12.70
2018-04-23T02:22:53.077Z,13.23
2018-04-23T02:25:20.458Z,13.50
2018-04-23T02:27:47.099Z,14.23
2018-04-23T02:30:13.773Z,12.60
2018-04-23T02:32:40.411Z,12.83
2018-04-23T02:35:07.787Z,13.80
2018-04-23T02:37:34.501Z,13.00
2018-04-23T02:40:01.175Z,13.70
2018-04-23T02:42:27.828Z,13.37
2018-04-23T02:44:54.502Z,13.87
2018-04-23T02:47:21.184Z,13.83
2018-04-23T02:49:47.833Z,14.37
2018-04-23T02:52:14.502Z,13.93
2018-04-23T02:54:41.138Z,13.50
2018-04-23T02:57:07.785Z,14.03
2018-04-23T02:59:34.466Z,13.63
2018-04-23T03:02:01.119Z,14.03
2018-04-23T03:04:27.761Z,14.33
2018-04-23T03:06:54.451Z,12.30
2018-04-23T03:09:21.083Z,14.40
2018-04-23T03:11:47.714Z,13.03
2018-04-23T03:14:14.418Z,14.27
2018-04-23T03:16:41.097Z,13.33
2018-04-23T03:19:07.779Z,14.07
2018-04-23T03:21:35.296Z,13.50
2018-04-23T03:24:01.954Z,14.40
2018-04-23T03:26:28.627Z,13.90
2018-04-23T03:28:56.059Z,12.90
2018-04-23T03:31:23.445Z,12.83
2018-04-23T03:33:50.866Z,14.40
2018-04-23T03:36:17.531Z,14.40
2018-04-23T03:38:44.178Z,12.80
2018-04-23T03:41:10.794Z,13.70
2018-04-23T03:43:37.427Z,14.77
2018-04-23T03:46:04.816Z,14.83
2018-04-23T03:48:31.469Z,13.33
2018-04-23T03:50:58.137Z,13.57
2018-04-23T03:53:24.796Z,14.07
2018-04-23T03:55:51.431Z,13.60
2018-04-23T03:58:18.104Z,13.30
2018-04-23T04:00:44.766Z,13.20
2018-04-23T04:03:11.412Z,14.33
2018-04-23T04:05:38.097Z,13.20
2018-04-23T04:08:04.729Z,13.53
2018-04-23T04:10:32.106Z,12.37
2018-04-23T04:13:17.058Z,14.50
2018-04-23T04:16:02.004Z,13.07
2018-04-23T04:18:44.964Z,13.90
2018-04-23T04:21:11.701Z,13.90
2018-04-23T04:23:39.102Z,13.13
2018-04-23T04:26:05.778Z,14.37
2018-04-23T04:28:32.406Z,14.43
2018-04-23T04:30:59.112Z,13.93
2018-04-23T04:33:25.776Z,14.70
2018-04-23T04:35:52.414Z,13.77
2018-04-23T04:38:19.135Z,13.97
2018-04-23T04:40:46.541Z,14.00
2018-04-23T04:43:13.190Z,14.10
2018-04-23T04:45:39.816Z,13.40
2018-04-23T04:48:06.506Z,14.23
2018-04-23T04:50:33.136Z,13.47
2018-04-23T04:53:00.522Z,12.73
2018-04-23T04:55:27.197Z,13.47
2018-04-23T04:57:53.857Z,14.60
2018-04-23T05:00:20.531Z,12.70
2018-04-23T05:02:47.952Z,13.30
2018-04-23T05:05:14.575Z,13.20
2018-04-23T05:07:41.218Z,12.63
2018-04-23T05:10:07.882Z,13.37
2018-04-23T05:12:34.521Z,12.17
2018-04-23T05:15:01.195Z,12.57
2018-04-23T05:17:28.650Z,13.20
2018-04-23T05:19:56.039Z,13.57
2018-04-23T05:22:22.702Z,12.80
2018-04-23T05:24:49.360Z,12.40
2018-04-23T05:27:16.034Z,11.47
2018-04-23T05:29:43.428Z,11.57
2018-04-23T05:32:10.097Z,11.90
2018-04-23T05:34:36.741Z,12.20
2018-04-23T05:37:10.316Z,11.60
2018-04-23T05:39:36.965Z,11.40
2018-04-23T05:42:03.773Z,15.83
2018-04-23T05:44:38.092Z,17.13
2018-04-23T05:47:05.472Z,17.67
2018-04-23T05:49:32.133Z,16.57
2018-04-23T05:51:58.806Z,17.03
2018-04-23T05:54:25.434Z,16.03
2018-04-23T05:56:52.074Z,16.20
2018-04-23T05:59:18.735Z,17.20
2018-04-23T06:01:46.101Z,16.97
2018-04-23T06:04:12.740Z,17.83
2018-04-23T06:06:39.441Z,17.50
2018-04-23T06:09:06.118Z,17.83
2018-04-23T06:11:32.769Z,16.40
2018-04-23T06:13:59.438Z,14.70
2018-04-23T06:16:26.832Z,16.50
2018-04-23T06:18:53.505Z,15.23
2018-04-23T06:21:20.929Z,15.63
2018-04-23T06:23:47.581Z,14.70
2018-04-23T06:26:14.222Z,15.10
2018-04-23T06:28:40.878Z,15.10
2018-04-23T06:31:07.532Z,16.90
2018-04-23T06:33:34.235Z,15.50
2018-04-23T06:36:00.897Z,17.17
2018-04-23T06:38:27.522Z,15.07
2018-04-23T06:40:54.194Z,14.00
2018-04-23T06:43:20.881Z,14.10
2018-04-23T06:45:48.303Z,14.07
2018-04-23T06:48:14.930Z,14.30
2018-04-23T06:50:41.584Z,14.23
2018-04-23T06:53:08.234Z,14.33
2018-04-23T06:55:34.863Z,14.10
2018-04-23T06:58:01.545Z,15.53
2018-04-23T07:00:28.182Z,13.70
2018-04-23T07:02:54.848Z,10.80
2018-04-23T07:05:22.245Z,10.90
2018-04-23T07:07:48.883Z,9.90
2018-04-23T07:10:15.502Z,11.00
2018-04-23T07:12:42.177Z,10.83
2018-04-23T07:15:08.883Z,11.30
2018-04-23T07:17:35.574Z,10.70
2018-04-23T07:20:02.413Z,10.90
2018-04-23T07:22:29.068Z,11.20
2018-04-23T07:24:55.739Z,10.73
2018-04-23T07:27:23.269Z,11.07
2018-04-23T07:29:49.899Z,10.50
2018-04-23T07:32:16.559Z,11.20
2018-04-23T07:34:43.240Z,10.77
2018-04-23T07:37:10.647Z,10.53
2018-04-23T07:39:38.038Z,10.47
2018-04-23T07:42:04.717Z,10.83
2018-04-23T07:44:31.386Z,11.00
2018-04-23T07:46:58.040Z,10.30
2018-04-23T07:49:24.717Z,15.50
2018-04-23T07:51:51.359Z,14.10
2018-04-23T07:54:18.739Z,13.83
2018-04-23T07:56:45.413Z,14.80
2018-04-23T07:59:12.073Z,12.77
2018-04-23T08:01:38.730Z,15.13
2018-04-23T08:04:05.419Z,15.43
2018-04-23T08:06:32.100Z,15.70
2018-04-23T08:08:58.785Z,15.83
2018-04-23T08:11:26.196Z,15.20
2018-04-23T08:13:53.568Z,16.93
2018-04-23T08:16:20.280Z,15.00
2018-04-23T08:18:46.940Z,15.23
2018-04-23T08:21:13.579Z,13.77
2018-04-23T08:23:40.210Z,13.20
2018-04-23T08:26:06.873Z,15.00
2018-04-23T08:28:33.501Z,14.07
2018-04-23T08:31:00.129Z,13.17
2018-04-23T08:33:26.838Z,13.73
2018-04-23T08:35:54.466Z,13.90
2018-04-23T08:38:21.137Z,14.43
2018-04-23T08:40:47.821Z,13.17
2018-04-23T08:43:14.452Z,13.80
2018-04-23T08:45:41.150Z,12.80
2018-04-23T08:48:07.869Z,13.47
2018-04-23T08:50:34.528Z,13.90
2018-04-23T08:53:01.916Z,13.17
2018-04-23T08:55:29.357Z,14.17
2018-04-23T08:57:56.033Z,13.37
2018-04-23T09:00:24.201Z,13.80
2018-04-23T09:02:51.635Z,13.67
2018-04-23T09:05:18.293Z,13.53
2018-04-23T09:07:44.932Z,11.13
2018-04-23T09:10:11.598Z,11.90
2018-04-23T09:12:38.985Z,12.17
2018-04-23T09:15:05.639Z,12.07
2018-04-23T09:17:32.309Z,12.17
2018-04-23T09:19:59.006Z,11.60
2018-04-23T09:22:25.656Z,11.40
2018-04-23T09:24:52.404Z,12.50
2018-04-23T09:27:19.738Z,10.93
2018-04-23T09:29:46.382Z,10.80
2018-04-23T09:32:13.036Z,10.67
2018-04-23T09:34:39.702Z,10.83
2018-04-23T09:37:06.321Z,11.40
2018-04-23T09:39:33.011Z,10.13
2018-04-23T09:41:59.642Z,10.13
2018-04-23T09:44:26.468Z,10.10
2018-04-23T09:46:53.132Z,9.83
2018-04-23T09:49:19.779Z,10.20
2018-04-23T09:51:46.463Z,10.40
2018-04-23T09:54:13.895Z,11.07
2018-04-23T09:56:40.554Z,10.43
2018-04-23T09:59:07.939Z,10.80
2018-04-23T10:01:34.700Z,9.90
2018-04-23T10:04:05.348Z,9.80
2018-04-23T10:06:32.016Z,10.43
2018-04-23T10:08:58.713Z,9.63
2018-04-23T10:11:25.362Z,9.40
2018-04-23T10:13:52.009Z,9.83
2018-04-23T10:16:18.677Z,9.23
2018-04-23T10:18:45.362Z,8.07
2018-04-23T10:21:12.024Z,8.37
2018-04-23T10:23:38.681Z,8.23
2018-04-23T10:26:05.321Z,8.00
2018-04-23T10:28:31.999Z,6.83
2018-04-23T10:30:59.450Z,5.80
2018-04-23T10:33:26.505Z,4.90
2018-04-23T10:35:54.261Z,5.97
2018-04-23T10:38:21.301Z,5.40
2018-04-23T10:40:48.734Z,5.50
2018-04-23T10:43:15.425Z,5.30
2018-04-23T10:45:42.129Z,6.10
2018-04-23T10:48:08.833Z,4.37
2018-04-23T10:50:36.265Z,5.20
2018-04-23T10:53:02.920Z,4.90
2018-04-23T10:55:29.587Z,5.30
2018-04-23T10:57:56.988Z,5.30
2018-04-23T11:00:23.680Z,5.90
2018-04-23T11:02:50.350Z,5.00
2018-04-23T11:05:17.050Z,5.87
2018-04-23T11:07:43.763Z,5.37
2018-04-23T11:10:10.437Z,5.50
2018-04-23T11:12:37.093Z,5.40
2018-04-23T11:15:03.799Z,6.00
2018-04-23T11:17:30.478Z,6.67
2018-04-23T11:19:57.136Z,6.27
2018-04-23T11:22:24.551Z,5.70
2018-04-23T11:24:51.282Z,6.27
2018-04-23T11:27:18.641Z,6.00
2018-04-23T11:29:46.082Z,4.87
2018-04-23T11:32:12.763Z,5.70
2018-04-23T11:34:39.589Z,4.73
2018-04-23T11:37:06.558Z,6.07
2018-04-23T11:39:33.212Z,5.90
2018-04-23T11:41:59.956Z,5.20
2018-04-23T11:44:26.659Z,4.30
2018-04-23T11:46:53.312Z,4.70
2018-04-23T11:49:19.956Z,4.87
2018-04-23T11:51:46.649Z,4.83
2018-04-23T11:54:14.027Z,4.27
2018-04-23T11:56:40.656Z,4.67
2018-04-23T11:59:08.061Z,4.40
2018-04-23T12:01:34.706Z,4.10
2018-04-23T12:04:01.429Z,3.97
2018-04-23T12:06:28.140Z,4.30
2018-04-23T12:08:55.516Z,4.27
2018-04-23T12:11:22.159Z,3.73
2018-04-23T12:13:48.851Z,4.17
2018-04-23T12:16:15.566Z,4.30
2018-04-23T12:18:42.239Z,4.50
2018-04-23T12:21:08.917Z,4.10
2018-04-23T12:23:36.320Z,4.40
2018-04-23T12:26:02.962Z,4.80
2018-04-23T12:28:29.630Z,4.63
2018-04-23T12:30:56.280Z,4.53
2018-04-23T12:33:23.011Z,4.77
2018-04-23T12:35:49.687Z,5.20
2018-04-23T12:38:17.128Z,6.23
2018-04-23T12:40:43.765Z,5.27
2018-04-23T12:43:10.415Z,5.20
2018-04-23T12:45:37.043Z,5.27
2018-04-23T12:48:03.683Z,5.50
2018-04-23T12:50:30.398Z,5.97
2018-04-23T12:52:57.037Z,5.50
2018-04-23T12:55:23.724Z,6.00
2018-04-23T12:57:50.393Z,6.17
2018-04-23T13:00:17.807Z,6.17
2018-04-23T13:02:44.479Z,5.10
2018-04-23T13:05:11.140Z,5.20
2018-04-23T13:07:38.505Z,5.10
2018-04-23T13:10:05.895Z,4.80
2018-04-23T13:12:32.570Z,5.20
2018-04-23T13:14:59.232Z,4.83
2018-04-23T13:17:26.618Z,5.13
2018-04-23T13:19:53.366Z,5.50
2018-04-23T13:22:20.042Z,5.37
2018-04-23T13:24:46.708Z,5.10
2018-04-23T13:27:13.415Z,5.00
2018-04-23T13:29:40.102Z,4.97
2018-04-23T13:32:06.774Z,4.30
2018-04-23T13:34:33.433Z,5.33
2018-04-23T13:37:00.103Z,5.60
2018-04-23T13:39:26.742Z,5.37
2018-04-23T13:41:53.384Z,5.20
2018-04-23T13:44:20.013Z,4.50
2018-04-23T13:46:46.669Z,4.33
2018-04-23T13:49:13.377Z,4.70
2018-04-23T13:51:40.094Z,5.17
2018-04-23T13:54:07.589Z,4.43
2018-04-23T13:56:34.277Z,5.37
2018-04-23T14:01:34.411Z,4.93
2018-04-23T14:04:01.051Z,4.90
2018-04-23T14:06:27.722Z,5.10
2018-04-23T14:08:54.453Z,5.40
2018-04-23T14:11:21.107Z,5.33
2018-04-23T14:13:47.780Z,5.50
2018-04-23T14:16:14.451Z,5.37
2018-04-23T14:18:41.140Z,5.07
2018-04-23T14:21:08.537Z,5.63
2018-04-23T14:23:35.249Z,4.67
2018-04-23T14:26:02.687Z,4.67
2018-04-23T14:28:29.361Z,5.00
2018-04-23T14:30:56.804Z,5.27
2018-04-23T14:33:23.441Z,5.50
2018-04-23T14:35:50.932Z,5.63
2018-04-23T14:38:18.337Z,5.33
2018-04-23T14:40:44.981Z,5.50
2018-04-23T14:43:11.633Z,5.70
2018-04-23T14:45:38.305Z,5.00
2018-04-23T14:48:05.735Z,5.53
2018-04-23T14:50:32.469Z,5.93
2018-04-23T14:52:59.262Z,5.70
2018-04-23T14:55:26.730Z,5.70
2018-04-23T14:57:53.386Z,6.00
2018-04-23T15:00:20.171Z,5.77
2018-04-23T15:02:46.862Z,4.87
2018-04-23T15:05:14.313Z,5.87
2018-04-23T15:07:41.817Z,5.80
2018-04-23T15:10:08.519Z,5.30
2018-04-23T15:12:35.918Z,5.33
2018-04-23T15:15:02.646Z,5.73
2018-04-23T15:17:29.324Z,6.40
2018-04-23T15:19:55.977Z,5.37
2018-04-23T15:22:22.689Z,6.67
2018-04-23T15:24:49.334Z,5.83
2018-04-23T15:27:16.032Z,5.27
2018-04-23T15:29:43.533Z,6.03
2018-04-23T15:32:10.161Z,5.30
2018-04-23T15:34:36.847Z,5.33
2018-04-23T15:37:03.526Z,5.20
2018-04-23T15:39:30.942Z,4.93
2018-04-23T15:41:57.609Z,5.53
2018-04-23T15:44:24.289Z,5.47
2018-04-23T15:46:50.952Z,5.67
2018-04-23T15:49:17.600Z,5.70
2018-04-23T15:51:44.339Z,5.07
2018-04-23T15:54:10.996Z,5.40
2018-04-23T15:56:37.644Z,5.23
2018-04-23T15:59:04.334Z,5.70
2018-04-23T16:01:31.847Z,5.03
2018-04-23T16:03:58.556Z,5.17
2018-04-23T16:06:25.230Z,5.70
2018-04-23T16:08:51.970Z,6.10
2018-04-23T16:11:18.619Z,7.90
2018-04-23T16:13:45.324Z,6.57
2018-04-23T16:16:11.960Z,6.23
2018-04-23T16:18:38.681Z,7.10
2018-04-23T16:21:06.109Z,7.13
2018-04-23T16:23:32.758Z,6.73
2018-04-23T16:25:59.409Z,6.90
2018-04-23T16:28:26.065Z,7.40
2018-04-23T16:30:53.466Z,6.60
2018-04-23T16:33:20.154Z,7.33
2018-04-23T16:35:46.845Z,6.47
2018-04-23T16:38:13.505Z,7.13
2018-04-23T16:40:40.178Z,8.00
2018-04-23T16:43:06.850Z,6.97
2018-04-23T16:45:34.315Z,7.07
2018-04-23T16:48:01.707Z,6.80
2018-04-23T16:50:28.358Z,7.23
2018-04-23T16:52:55.015Z,7.80
2018-04-23T16:55:21.709Z,7.80
2018-04-23T16:57:48.442Z,6.80
2018-04-23T17:00:15.922Z,7.73
2018-04-23T17:02:42.634Z,7.77
2018-04-23T17:05:10.082Z,7.57
2018-04-23T17:07:36.722Z,8.10
2018-04-23T17:10:03.414Z,7.80
2018-04-23T17:12:30.129Z,8.00
2018-04-23T17:14:57.540Z,7.93
2018-04-23T17:17:24.187Z,8.80
2018-04-23T17:19:50.870Z,8.03
2018-04-23T17:22:18.293Z,8.17
2018-04-23T17:24:44.961Z,8.23
2018-04-23T17:27:11.669Z,7.03
2018-04-23T17:29:38.338Z,8.53
2018-04-23T17:32:05.361Z,8.47
2018-04-23T17:34:32.097Z,7.50
2018-04-23T17:36:58.803Z,8.43
2018-04-23T17:39:26.256Z,8.33
2018-04-23T17:41:53.011Z,8.70
2018-04-23T17:44:20.509Z,8.63
2018-04-23T17:46:47.193Z,8.17
2018-04-23T17:49:13.887Z,8.80
2018-04-23T17:51:40.619Z,8.87
2018-04-23T17:54:07.325Z,8.37
2018-04-23T17:56:34.070Z,7.20
2018-04-23T17:59:00.758Z,8.63
2018-04-23T18:01:27.435Z,8.33
2018-04-23T18:03:54.142Z,9.10
2018-04-23T18:06:20.807Z,9.90
2018-04-23T18:08:47.499Z,8.37
2018-04-23T18:11:14.178Z,8.60
2018-04-23T18:13:40.881Z,8.10
2018-04-23T18:16:07.602Z,9.90
2018-04-23T18:18:41.258Z,8.30
2018-04-23T18:21:08.641Z,8.70
2018-04-23T18:23:35.322Z,9.10
2018-04-23T18:26:02.061Z,9.53
2018-04-23T18:28:28.728Z,9.77
2018-04-23T18:30:56.298Z,9.70
2018-04-23T18:33:23.745Z,9.60
2018-04-23T18:35:50.460Z,9.30
2018-04-23T18:38:17.299Z,9.00
2018-04-23T18:40:44.040Z,10.60
2018-04-23T18:43:10.684Z,10.03
2018-04-23T18:45:37.357Z,9.93
2018-04-23T18:48:04.117Z,10.90
2018-04-23T18:50:31.578Z,8.60
2018-04-23T18:52:59.010Z,8.03
2018-04-23T18:55:25.755Z,8.30
2018-04-23T18:57:52.445Z,7.70
2018-04-23T19:00:19.873Z,6.90
2018-04-23T19:02:46.576Z,6.63
2018-04-23T19:05:13.287Z,6.00
2018-04-23T19:07:40.208Z,6.00
2018-04-23T19:10:06.883Z,6.70
2018-04-23T19:12:34.384Z,5.07
2018-04-23T19:15:01.186Z,5.13
2018-04-23T19:17:28.751Z,4.77
2018-04-23T19:19:56.179Z,3.90
2018-04-23T19:22:22.888Z,4.30
2018-04-23T19:24:49.589Z,4.20
2018-04-23T19:27:16.989Z,3.90
2018-04-23T19:29:43.708Z,3.80
2018-04-23T19:32:10.566Z,3.63
2018-04-23T19:34:37.332Z,4.33
2018-04-23T19:37:04.146Z,3.43
2018-04-23T19:39:30.867Z,3.40
2018-04-23T19:41:58.348Z,3.90
2018-04-23T19:44:25.050Z,4.03
2018-04-23T19:46:51.746Z,3.80
2018-04-23T19:49:18.458Z,3.70
2018-04-23T19:51:45.988Z,3.80
2018-04-23T19:54:12.733Z,4.00
2018-04-23T19:56:39.488Z,3.70
2018-04-23T19:59:06.310Z,4.33
2018-04-23T20:01:33.021Z,5.87
2018-04-23T20:04:06.698Z,6.40
2018-04-23T20:06:33.425Z,4.30
2018-04-23T20:09:00.114Z,4.70
2018-04-23T20:11:26.787Z,4.13
2018-04-23T20:13:53.481Z,4.60
2018-04-23T20:16:20.880Z,4.70
2018-04-23T20:18:47.584Z,5.07
2018-04-23T20:21:15.059Z,5.90
2018-04-23T20:23:42.473Z,5.97
2018-04-23T20:26:09.190Z,5.57
2018-04-23T20:28:35.908Z,6.20
2018-04-23T20:31:02.643Z,6.47
2018-04-23T20:33:30.134Z,5.60
2018-04-23T20:35:56.799Z,7.33
2018-04-23T20:38:23.495Z,6.80
2018-04-23T20:40:50.882Z,6.27
2018-04-23T20:43:17.587Z,7.17
2018-04-23T20:45:45.047Z,7.10
2018-04-23T20:48:11.720Z,7.40
2018-04-23T20:50:39.247Z,7.33
2018-04-23T20:53:05.874Z,7.47
2018-04-23T20:55:32.573Z,7.53
2018-04-23T20:57:59.269Z,7.43
2018-04-23T21:00:26.012Z,7.73
2018-04-23T21:02:52.625Z,7.67
2018-04-23T21:05:19.284Z,6.60
2018-04-23T21:07:46.040Z,6.73
2018-04-23T21:10:13.466Z,7.20
2018-04-23T21:12:40.240Z,7.47
2018-04-23T21:15:06.901Z,6.80
2018-04-23T21:17:34.347Z,7.40
2018-04-23T21:20:01.049Z,7.50
2018-04-23T21:22:27.773Z,7.77
2018-04-23T21:24:54.505Z,7.30
2018-04-23T21:27:21.939Z,7.67
2018-04-23T21:29:48.645Z,7.20
2018-04-23T21:32:15.340Z,8.37
2018-04-23T21:34:42.779Z,7.93
2018-04-23T21:37:09.424Z,7.67
2018-04-23T21:39:36.114Z,8.40
2018-04-23T21:42:02.804Z,7.73
2018-04-23T21:44:29.473Z,8.07
2018-04-23T21:46:56.146Z,7.33
2018-04-23T21:49:22.810Z,8.40
2018-04-23T21:51:49.484Z,7.40
2018-04-23T21:54:16.156Z,7.30
2018-04-23T21:56:43.592Z,8.10
2018-04-23T21:59:10.302Z,7.40
2018-04-23T22:01:37.004Z,8.10
2018-04-23T22:04:04.406Z,8.07
2018-04-23T22:06:31.072Z,8.43
2018-04-23T22:08:57.717Z,9.23
2018-04-23T22:11:24.504Z,9.30
2018-04-23T22:13:51.165Z,9.80
2018-04-23T22:16:17.817Z,10.30
2018-04-23T22:18:44.502Z,9.40
2018-04-23T22:21:11.141Z,9.77
2018-04-23T22:23:37.797Z,8.83
2018-04-23T22:26:05.938Z,9.20
2018-04-23T22:28:32.620Z,8.40
2018-04-23T22:31:00.020Z,9.13
2018-04-23T22:33:26.688Z,9.47
2018-04-23T22:35:53.370Z,8.30
2018-04-23T22:38:20.775Z,9.10
2018-04-23T22:40:47.481Z,8.03
2018-04-23T22:43:14.135Z,8.10
2018-04-23T22:45:40.783Z,8.80
2018-04-23T22:48:07.463Z,9.00
2018-04-23T22:50:34.235Z,9.40
2018-04-23T22:53:00.825Z,9.70
2018-04-23T22:55:27.517Z,9.90
2018-04-23T22:57:54.170Z,10.10
2018-04-23T23:00:21.487Z,9.93
2018-04-23T23:02:48.088Z,10.80
2018-04-23T23:05:14.669Z,9.57
2018-04-23T23:07:41.239Z,9.83
2018-04-23T23:10:07.866Z,10.90
2018-04-23T23:12:34.448Z,8.20
2018-04-23T23:15:01.018Z,9.23
2018-04-23T23:17:27.593Z,9.50
2018-04-23T23:19:54.158Z,10.13
2018-04-23T23:22:21.471Z,10.00
2018-04-23T23:24:55.027Z,9.20
2018-04-23T23:27:21.617Z,7.33
2018-04-23T23:29:48.153Z,6.63
2018-04-23T23:32:14.735Z,6.40
2018-04-23T23:34:42.055Z,6.30
2018-04-23T23:37:09.366Z,5.50
2018-04-23T23:39:35.935Z,4.40
2018-04-23T23:42:02.502Z,5.00
2018-04-23T23:44:29.079Z,3.93
2018-04-23T23:46:56.409Z,4.63
2018-04-23T23:49:23.001Z,4.50
2018-04-23T23:51:49.602Z,4.07
2018-04-23T23:54:16.154Z,4.10
2018-04-23T23:56:43.469Z,4.07
2018-04-23T23:59:10.029Z,3.90
